Time;durP1;ratioP1;P1;durP2;ratioP2;P2;SDS_P1;SDS_P2;PMS_P1;PMS_P2;Temp;Humidity;BMP_temperature;BMP_pressure;BME280_temperature;BME280_humidity;BME280_pressure;Samples;Min_cycle;Max_cycle;Signal;HPM_P1;HPM_P2
2023/08/27 00:00:56;;;;;;;;;;;16.20;82.40;;;;;;5093892;28;19908;-30
2023/08/27 00:03:21;;;;;;;;;;;16.30;82.30;;;;;;5093893;28;19915;-31
2023/08/27 00:05:47;;;;;;;;;;;16.30;82.20;;;;;;5093571;28;19920;-32
2023/08/27 00:08:13;;;;;;;;;;;16.30;82.20;;;;;;5092111;28;19912;-31
2023/08/27 00:10:38;;;;;;;;;;;16.40;82.10;;;;;;5093368;28;19919;-29
2023/08/27 00:13:04;;;;;;;;;;;16.40;82.10;;;;;;5093558;28;19916;-30
2023/08/27 00:15:29;;;;;;;;;;;16.40;82.00;;;;;;5093465;28;20059;-26
2023/08/27 00:17:55;;;;;;;;;;;16.50;82.70;;;;;;5093405;28;19908;-28
2023/08/27 00:20:20;;;;;;;;;;;16.50;82.00;;;;;;5091701;28;19919;-25
2023/08/27 00:22:46;;;;;;;;;;;16.60;82.10;;;;;;5093322;28;19990;-29
2023/08/27 00:25:11;;;;;;;;;;;16.60;82.00;;;;;;5091228;28;19999;-27
2023/08/27 00:27:37;;;;;;;;;;;16.60;81.90;;;;;;5093314;28;19977;-26
2023/08/27 00:30:04;;;;;;;;;;;16.60;81.90;;;;;;5092994;28;19915;-27
2023/08/27 00:32:31;;;;;;;;;;;16.60;81.80;;;;;;5093206;28;19908;-27
2023/08/27 00:34:57;;;;;;;;;;;16.60;81.80;;;;;;5093137;28;19931;-26
2023/08/27 00:37:22;;;;;;;;;;;16.60;81.90;;;;;;5093027;28;19908;-26
2023/08/27 00:39:47;;;;;;;;;;;16.60;81.90;;;;;;5092875;28;20056;-26
2023/08/27 00:42:13;;;;;;;;;;;16.60;81.90;;;;;;5091695;28;19915;-30
2023/08/27 00:44:38;;;;;;;;;;;16.60;81.90;;;;;;5092731;28;19947;-29
2023/08/27 00:47:04;;;;;;;;;;;16.60;81.90;;;;;;5092908;28;19908;-31
2023/08/27 00:49:30;;;;;;;;;;;16.60;81.90;;;;;;5092605;28;19954;-27
2023/08/27 00:51:56;;;;;;;;;;;16.50;81.90;;;;;;5092647;28;19912;-27
2023/08/27 00:54:22;;;;;;;;;;;16.50;82.00;;;;;;5092721;28;19999;-26
2023/08/27 00:56:47;;;;;;;;;;;16.50;82.00;;;;;;5092666;28;19944;-41
2023/08/27 00:59:13;;;;;;;;;;;16.50;82.00;;;;;;5092488;28;19931;-39
2023/08/27 01:01:39;;;;;;;;;;;16.50;82.00;;;;;;5092211;28;19908;-36
2023/08/27 01:04:04;;;;;;;;;;;16.50;81.90;;;;;;5092546;28;19912;-39
2023/08/27 01:06:30;;;;;;;;;;;16.50;81.90;;;;;;5092495;28;19920;-42
2023/08/27 01:08:58;;;;;;;;;;;16.50;81.90;;;;;;5092464;28;20380;-40
2023/08/27 01:11:24;;;;;;;;;;;16.50;81.80;;;;;;5092452;28;19912;-39
2023/08/27 01:13:54;;;;;;;;;;;16.50;81.80;;;;;;5092533;28;19935;-42
2023/08/27 01:16:20;;;;;;;;;;;16.50;81.60;;;;;;5092478;28;19909;-44
2023/08/27 01:18:47;;;;;;;;;;;16.50;81.60;;;;;;5092273;28;19908;-39
2023/08/27 01:21:15;;;;;;;;;;;16.50;81.50;;;;;;5092297;28;19908;-42
2023/08/27 01:23:41;;;;;;;;;;;16.50;81.40;;;;;;5091080;28;20367;-35
2023/08/27 01:26:06;;;;;;;;;;;16.60;81.40;;;;;;5092304;28;19908;-29
2023/08/27 01:28:36;;;;;;;;;;;16.60;81.40;;;;;;5092140;28;20447;-32
2023/08/27 01:31:09;;;;;;;;;;;16.60;81.30;;;;;;5092206;28;19912;-29
2023/08/27 01:33:36;;;;;;;;;;;16.60;81.20;;;;;;5092184;28;19961;-30
2023/08/27 01:36:02;;;;;;;;;;;16.60;81.20;;;;;;5092246;28;20026;-29
2023/08/27 01:38:28;;;;;;;;;;;16.60;81.20;;;;;;5096354;28;19908;-29
2023/08/27 01:40:53;;;;;;;;;;;16.60;81.20;;;;;;5096356;28;20326;-29
2023/08/27 01:43:19;;;;;;;;;;;16.60;81.20;;;;;;5096205;28;19969;-36
2023/08/27 01:45:45;;;;;;;;;;;16.50;81.20;;;;;;5096352;28;19948;-31
2023/08/27 01:48:10;;;;;;;;;;;16.50;81.20;;;;;;5096263;28;20101;-31
2023/08/27 01:50:35;;;;;;;;;;;16.50;81.20;;;;;;5095863;28;20283;-30
2023/08/27 01:53:02;;;;;;;;;;;16.50;81.30;;;;;;5096301;28;19961;-29
2023/08/27 01:55:28;;;;;;;;;;;16.50;81.30;;;;;;5096119;28;19915;-29
2023/08/27 01:57:53;;;;;;;;;;;16.50;81.30;;;;;;5096163;28;20275;-30
2023/08/27 02:00:20;;;;;;;;;;;16.50;81.20;;;;;;5095565;28;19908;-29
2023/08/27 02:02:46;;;;;;;;;;;16.50;81.20;;;;;;5095733;28;20355;-28
2023/08/27 02:05:11;;;;;;;;;;;16.50;81.20;;;;;;5095682;28;19912;-31
2023/08/27 02:07:37;;;;;;;;;;;16.60;81.20;;;;;;5096113;28;19909;-31
2023/08/27 02:10:04;;;;;;;;;;;16.50;81.20;;;;;;5095734;28;19916;-29
2023/08/27 02:12:29;;;;;;;;;;;16.60;81.20;;;;;;5095786;28;19908;-40
2023/08/27 02:14:55;;;;;;;;;;;16.60;81.20;;;;;;5095821;28;20364;-42
2023/08/27 02:17:20;;;;;;;;;;;16.60;81.10;;;;;;5095292;28;19962;-32
2023/08/27 02:19:46;;;;;;;;;;;16.60;81.20;;;;;;5094997;28;19909;-35
2023/08/27 02:22:11;;;;;;;;;;;16.60;81.10;;;;;;5095625;28;19915;-43
2023/08/27 02:24:36;;;;;;;;;;;16.60;81.10;;;;;;5095471;28;20452;-44
2023/08/27 02:27:02;;;;;;;;;;;16.60;81.10;;;;;;5095590;28;19965;-44
2023/08/27 02:29:28;;;;;;;;;;;16.60;81.10;;;;;;5095433;28;20368;-44
2023/08/27 02:31:53;;;;;;;;;;;16.50;81.10;;;;;;5095379;28;19912;-44
2023/08/27 02:34:19;;;;;;;;;;;16.50;81.20;;;;;;5095451;28;19908;-37
2023/08/27 02:36:44;;;;;;;;;;;16.50;81.20;;;;;;5095377;28;20395;-30
2023/08/27 02:39:11;;;;;;;;;;;16.40;81.20;;;;;;5095279;28;19912;-39
2023/08/27 02:41:37;;;;;;;;;;;16.40;81.30;;;;;;5095278;28;20414;-42
2023/08/27 02:44:02;;;;;;;;;;;16.40;81.30;;;;;;5095084;28;19936;-45
2023/08/27 02:46:28;;;;;;;;;;;16.40;81.40;;;;;;5095243;28;19962;-38
2023/08/27 02:48:53;;;;;;;;;;;16.40;81.40;;;;;;5094267;28;19962;-38
2023/08/27 02:51:19;;;;;;;;;;;16.40;81.40;;;;;;5094932;28;19912;-43
2023/08/27 02:53:44;;;;;;;;;;;16.30;81.40;;;;;;5095161;28;20375;-41
2023/08/27 02:56:10;;;;;;;;;;;16.30;81.50;;;;;;5094916;28;20134;-37
2023/08/27 02:58:35;;;;;;;;;;;16.30;81.50;;;;;;5094917;28;20348;-39
2023/08/27 03:01:01;;;;;;;;;;;16.30;81.50;;;;;;5094848;28;19964;-41
2023/08/27 03:03:26;;;;;;;;;;;16.30;81.50;;;;;;5094928;28;19964;-29
2023/08/27 03:05:52;;;;;;;;;;;16.30;81.50;;;;;;5094580;28;20342;-38
2023/08/27 03:08:17;;;;;;;;;;;16.30;81.50;;;;;;5094819;28;20019;-38
2023/08/27 03:10:43;;;;;;;;;;;16.40;81.50;;;;;;5094898;28;19925;-41
2023/08/27 03:13:08;;;;;;;;;;;16.30;81.40;;;;;;5094777;28;19909;-41
2023/08/27 03:15:34;;;;;;;;;;;16.40;81.40;;;;;;5094521;28;19908;-40
2023/08/27 03:17:59;;;;;;;;;;;16.40;81.40;;;;;;5094774;28;19909;-39
2023/08/27 03:20:25;;;;;;;;;;;16.40;81.40;;;;;;5094238;28;19908;-40
2023/08/27 03:22:50;;;;;;;;;;;16.40;81.40;;;;;;5094653;28;20007;-34
2023/08/27 03:25:16;;;;;;;;;;;16.40;81.30;;;;;;5094462;28;19908;-27
2023/08/27 03:27:41;;;;;;;;;;;16.40;81.30;;;;;;5094465;28;19953;-44
2023/08/27 03:30:07;;;;;;;;;;;16.50;81.30;;;;;;5094129;28;20177;-46
2023/08/27 03:32:32;;;;;;;;;;;16.50;81.20;;;;;;5094271;28;19908;-28
2023/08/27 03:34:58;;;;;;;;;;;16.50;81.20;;;;;;5094314;28;19962;-29
2023/08/27 03:37:23;;;;;;;;;;;16.50;81.10;;;;;;5094220;28;19908;-31
2023/08/27 03:39:49;;;;;;;;;;;16.50;81.10;;;;;;5094085;28;20467;-29
2023/08/27 03:42:14;;;;;;;;;;;16.50;81.00;;;;;;5094150;28;19962;-28
2023/08/27 03:44:40;;;;;;;;;;;16.50;81.00;;;;;;5094019;28;19968;-27
2023/08/27 03:47:05;;;;;;;;;;;16.50;81.00;;;;;;5093980;28;19916;-27
2023/08/27 03:49:31;;;;;;;;;;;16.50;81.00;;;;;;5093711;28;19918;-28
2023/08/27 03:51:56;;;;;;;;;;;16.50;81.10;;;;;;5093786;28;19912;-36
2023/08/27 03:54:22;;;;;;;;;;;16.50;81.20;;;;;;5093768;28;20006;-26
2023/08/27 03:56:48;;;;;;;;;;;16.40;81.30;;;;;;5093587;28;20399;-25
2023/08/27 03:59:13;;;;;;;;;;;16.30;81.40;;;;;;5092549;28;19931;-26
2023/08/27 04:01:39;;;;;;;;;;;16.30;81.60;;;;;;5093728;28;19915;-25
2023/08/27 04:04:04;;;;;;;;;;;16.20;81.70;;;;;;5093771;28;20399;-27
2023/08/27 04:06:30;;;;;;;;;;;16.20;81.80;;;;;;5093517;28;19927;-28
2023/08/27 04:08:57;;;;;;;;;;;16.20;82.00;;;;;;5092674;28;21655;-31
2023/08/27 04:11:23;;;;;;;;;;;16.10;82.10;;;;;;5093498;28;19943;-26
2023/08/27 04:13:49;;;;;;;;;;;16.10;82.30;;;;;;5093482;28;19914;-26
2023/08/27 04:16:15;;;;;;;;;;;16.00;82.50;;;;;;5093464;28;20271;-27
2023/08/27 04:18:41;;;;;;;;;;;16.00;82.60;;;;;;5093262;28;19909;-26
2023/08/27 04:21:06;;;;;;;;;;;16.00;82.80;;;;;;5093154;28;19909;-28
2023/08/27 04:23:33;;;;;;;;;;;15.90;82.90;;;;;;5093397;28;20590;-29
2023/08/27 04:25:58;;;;;;;;;;;15.80;83.00;;;;;;5093461;28;20412;-29
2023/08/27 04:28:24;;;;;;;;;;;15.80;83.10;;;;;;5093043;28;20026;-29
2023/08/27 04:30:49;;;;;;;;;;;15.80;83.20;;;;;;5092940;28;19916;-29
2023/08/27 04:33:18;;;;;;;;;;;15.80;83.50;;;;;;5093187;28;19912;-29
2023/08/27 04:35:47;;;;;;;;;;;15.80;83.60;;;;;;5093100;28;20375;-36
2023/08/27 04:38:13;;;;;;;;;;;15.70;83.60;;;;;;5093117;28;19908;-44
2023/08/27 04:40:39;;;;;;;;;;;15.70;83.60;;;;;;5091375;28;20283;-45
2023/08/27 04:43:04;;;;;;;;;;;15.70;83.70;;;;;;5093135;28;19939;-30
2023/08/27 04:45:30;;;;;;;;;;;15.70;83.70;;;;;;5092911;28;20271;-28
2023/08/27 04:47:55;;;;;;;;;;;15.70;83.90;;;;;;5093235;28;19957;-28
2023/08/27 04:50:20;;;;;;;;;;;15.70;83.90;;;;;;5091312;28;19916;-30
2023/08/27 04:52:46;;;;;;;;;;;15.70;84.00;;;;;;5092833;28;19908;-43
2023/08/27 04:55:12;;;;;;;;;;;15.70;84.10;;;;;;5092636;28;20405;-44
2023/08/27 04:57:37;;;;;;;;;;;15.70;84.10;;;;;;5092703;28;20139;-44
2023/08/27 05:00:04;;;;;;;;;;;15.70;84.10;;;;;;5092899;28;19995;-44
2023/08/27 05:02:29;;;;;;;;;;;15.70;84.10;;;;;;5092530;28;19915;-40
2023/08/27 05:04:54;;;;;;;;;;;15.70;84.20;;;;;;5092538;28;19938;-44
2023/08/27 05:07:20;;;;;;;;;;;15.70;84.30;;;;;;5092556;28;20398;-47
2023/08/27 05:09:46;;;;;;;;;;;15.70;84.40;;;;;;5091190;28;19951;-43
2023/08/27 05:12:11;;;;;;;;;;;15.70;84.50;;;;;;5092223;28;19924;-40
2023/08/27 05:14:37;;;;;;;;;;;15.70;84.50;;;;;;5092478;28;20007;-46
2023/08/27 05:17:02;;;;;;;;;;;15.70;84.60;;;;;;5092527;28;20280;-43
2023/08/27 05:19:28;;;;;;;;;;;15.70;84.70;;;;;;5092197;28;20010;-39
2023/08/27 05:21:53;;;;;;;;;;;15.70;84.70;;;;;;5092404;28;20350;-42
2023/08/27 05:24:19;;;;;;;;;;;15.70;84.70;;;;;;5092366;28;19909;-39
2023/08/27 05:26:44;;;;;;;;;;;15.70;84.70;;;;;;5092457;28;19955;-41
2023/08/27 05:29:10;;;;;;;;;;;15.70;84.70;;;;;;5092179;28;20387;-43
2023/08/27 05:31:36;;;;;;;;;;;15.60;84.70;;;;;;5092316;28;19920;-44
2023/08/27 05:34:02;;;;;;;;;;;15.60;84.80;;;;;;5092558;28;19916;-45
2023/08/27 05:36:27;;;;;;;;;;;15.60;84.80;;;;;;5092232;28;20296;-44
2023/08/27 05:38:52;;;;;;;;;;;15.70;84.90;;;;;;5092017;28;19908;-43
2023/08/27 05:41:18;;;;;;;;;;;15.70;84.80;;;;;;5092140;28;19908;-42
2023/08/27 05:43:43;;;;;;;;;;;15.70;84.80;;;;;;5092002;28;19908;-41
2023/08/27 05:46:09;;;;;;;;;;;15.70;84.80;;;;;;5092168;28;20284;-43
2023/08/27 05:48:36;;;;;;;;;;;15.70;84.80;;;;;;5091904;28;19999;-43
2023/08/27 05:51:03;;;;;;;;;;;15.70;84.90;;;;;;5091713;28;20379;-44
2023/08/27 05:53:28;;;;;;;;;;;15.80;84.80;;;;;;5092101;28;19908;-42
2023/08/27 05:55:54;;;;;;;;;;;15.80;84.80;;;;;;5092325;28;19915;-43
2023/08/27 05:58:19;;;;;;;;;;;15.80;84.80;;;;;;5092051;28;19909;-30
2023/08/27 06:00:44;;;;;;;;;;;15.80;84.70;;;;;;5092000;28;20283;-29
2023/08/27 06:03:10;;;;;;;;;;;15.80;84.70;;;;;;5092036;28;20307;-28
2023/08/27 06:05:36;;;;;;;;;;;15.90;84.70;;;;;;5091927;28;19926;-29
2023/08/27 06:08:03;;;;;;;;;;;15.90;84.60;;;;;;5091973;28;19912;-31
2023/08/27 06:10:29;;;;;;;;;;;16.00;84.60;;;;;;5091836;28;19912;-28
2023/08/27 06:12:56;;;;;;;;;;;16.10;84.60;;;;;;5092268;28;19912;-29
2023/08/27 06:15:22;;;;;;;;;;;16.00;84.50;;;;;;5091808;28;20207;-29
2023/08/27 06:17:47;;;;;;;;;;;16.10;84.50;;;;;;5090579;28;20358;-29
2023/08/27 06:20:13;;;;;;;;;;;16.10;84.50;;;;;;5090126;28;19908;-29
2023/08/27 06:22:39;;;;;;;;;;;16.20;84.50;;;;;;5092413;28;19995;-28
2023/08/27 06:25:04;;;;;;;;;;;16.20;84.50;;;;;;5095915;28;19908;-28
2023/08/27 06:27:30;;;;;;;;;;;16.20;84.40;;;;;;5095622;28;20007;-27
2023/08/27 06:29:55;;;;;;;;;;;16.30;84.50;;;;;;5095377;28;20283;-30
2023/08/27 06:32:21;;;;;;;;;;;16.30;84.40;;;;;;5095431;28;19923;-30
2023/08/27 06:34:46;;;;;;;;;;;16.40;84.40;;;;;;5095384;28;19908;-29
2023/08/27 06:37:11;;;;;;;;;;;16.40;84.30;;;;;;5095480;28;19931;-29
2023/08/27 06:39:37;;;;;;;;;;;16.50;84.30;;;;;;5095478;28;20045;-28
2023/08/27 06:42:03;;;;;;;;;;;16.60;84.20;;;;;;5095345;28;20544;-30
2023/08/27 06:44:28;;;;;;;;;;;16.70;84.10;;;;;;5095198;28;19908;-30
2023/08/27 06:46:54;;;;;;;;;;;16.70;84.00;;;;;;5095144;28;19908;-30
2023/08/27 06:49:20;;;;;;;;;;;16.70;84.00;;;;;;5094991;28;20407;-28
2023/08/27 06:51:45;;;;;;;;;;;16.80;83.90;;;;;;5094930;28;20023;-29
2023/08/27 06:54:11;;;;;;;;;;;16.80;83.90;;;;;;5095215;28;19920;-29
2023/08/27 06:56:36;;;;;;;;;;;16.80;83.80;;;;;;5093649;28;20367;-32
2023/08/27 06:59:02;;;;;;;;;;;16.90;83.90;;;;;;5094973;28;19908;-28
2023/08/27 07:01:28;;;;;;;;;;;16.80;83.80;;;;;;5094898;28;19908;-42
2023/08/27 07:03:53;;;;;;;;;;;16.90;84.00;;;;;;5094871;28;20024;-43
2023/08/27 07:06:19;;;;;;;;;;;16.90;83.90;;;;;;5094661;28;20393;-43
2023/08/27 07:08:45;;;;;;;;;;;16.90;83.90;;;;;;5094624;28;19908;-41
2023/08/27 07:11:11;;;;;;;;;;;17.00;83.90;;;;;;5094587;28;19916;-40
2023/08/27 07:13:37;;;;;;;;;;;17.10;83.80;;;;;;5094562;28;19915;-42
2023/08/27 07:16:03;;;;;;;;;;;17.10;83.70;;;;;;5094709;28;19908;-40
2023/08/27 07:18:29;;;;;;;;;;;17.20;83.70;;;;;;5094455;28;19908;-37
2023/08/27 07:20:54;;;;;;;;;;;17.20;83.60;;;;;;5094208;28;19999;-39
2023/08/27 07:23:20;;;;;;;;;;;17.30;83.60;;;;;;5094432;28;20024;-27
2023/08/27 07:25:46;;;;;;;;;;;17.30;83.50;;;;;;5093173;28;19915;-29
2023/08/27 07:28:11;;;;;;;;;;;17.40;83.50;;;;;;5094756;28;19997;-28
2023/08/27 07:30:37;;;;;;;;;;;17.40;83.40;;;;;;5092733;28;19919;-27
2023/08/27 07:33:03;;;;;;;;;;;17.40;83.30;;;;;;5094278;28;20338;-28
2023/08/27 07:35:29;;;;;;;;;;;17.40;83.40;;;;;;5094194;28;19948;-29
2023/08/27 07:37:55;;;;;;;;;;;17.40;83.40;;;;;;5094030;28;20207;-29
2023/08/27 07:40:20;;;;;;;;;;;17.50;83.50;;;;;;5093942;28;20427;-28
2023/08/27 07:42:46;;;;;;;;;;;17.50;83.40;;;;;;5094181;28;19952;-28
2023/08/27 07:45:11;;;;;;;;;;;17.50;83.40;;;;;;5094043;28;19915;-28
2023/08/27 07:47:37;;;;;;;;;;;17.50;83.40;;;;;;5093953;28;19943;-33
2023/08/27 07:50:03;;;;;;;;;;;17.60;83.30;;;;;;5093903;28;20395;-31
2023/08/27 07:52:28;;;;;;;;;;;17.70;83.30;;;;;;5093711;28;19970;-30
2023/08/27 07:54:54;;;;;;;;;;;17.70;83.10;;;;;;5094102;28;19940;-31
2023/08/27 07:57:19;;;;;;;;;;;17.80;83.20;;;;;;5093650;28;19915;-30
2023/08/27 07:59:45;;;;;;;;;;;17.90;83.20;;;;;;5093910;28;19957;-34
2023/08/27 08:02:11;;;;;;;;;;;17.90;83.10;;;;;;5093900;28;19957;-29
2023/08/27 08:04:36;;;;;;;;;;;17.90;83.70;;;;;;5093592;28;19908;-30
2023/08/27 08:07:02;;;;;;;;;;;17.90;83.10;;;;;;5093356;28;19920;-30
2023/08/27 08:09:28;;;;;;;;;;;18.00;83.00;;;;;;5093600;28;20004;-29
2023/08/27 08:11:53;;;;;;;;;;;18.00;82.90;;;;;;5093688;28;19986;-28
2023/08/27 08:14:19;;;;;;;;;;;18.10;82.90;;;;;;5093582;28;19908;-29
2023/08/27 08:16:44;;;;;;;;;;;18.20;82.70;;;;;;5093451;28;19908;-28
2023/08/27 08:19:10;;;;;;;;;;;18.20;82.50;;;;;;5093579;28;19998;-28
2023/08/27 08:21:36;;;;;;;;;;;18.20;82.50;;;;;;5093050;28;19920;-29
2023/08/27 08:24:01;;;;;;;;;;;18.30;82.50;;;;;;5093291;28;20012;-29
2023/08/27 08:26:27;;;;;;;;;;;18.30;83.10;;;;;;5093644;28;20335;-29
2023/08/27 08:28:52;;;;;;;;;;;18.30;82.40;;;;;;5093059;28;20264;-30
2023/08/27 08:31:18;;;;;;;;;;;18.40;82.30;;;;;;5093096;28;20018;-29
2023/08/27 08:33:43;;;;;;;;;;;18.40;81.90;;;;;;5093424;28;19930;-28
2023/08/27 08:36:08;;;;;;;;;;;18.40;81.60;;;;;;5091729;28;19951;-32
2023/08/27 08:38:34;;;;;;;;;;;18.20;81.80;;;;;;5092868;28;19908;-30
2023/08/27 08:41:01;;;;;;;;;;;18.20;82.00;;;;;;5091734;28;19956;-34
2023/08/27 08:43:44;;;;;;;;;;;18.20;82.10;;;;;;5092853;28;19915;-30
2023/08/27 08:46:10;;;;;;;;;;;18.20;82.10;;;;;;5092619;28;20412;-28
2023/08/27 08:48:39;;;;;;;;;;;18.40;82.00;;;;;;5091291;28;19999;-31
2023/08/27 08:51:06;;;;;;;;;;;18.50;81.70;;;;;;5092431;28;19998;-28
2023/08/27 08:53:34;;;;;;;;;;;18.60;81.50;;;;;;5092986;28;20436;-29
2023/08/27 08:56:03;;;;;;;;;;;18.60;81.00;;;;;;5092619;28;20246;-36
2023/08/27 08:58:31;;;;;;;;;;;18.70;80.80;;;;;;5091604;28;19912;-28
2023/08/27 09:00:57;;;;;;;;;;;18.70;80.80;;;;;;5092626;28;19995;-29
2023/08/27 09:03:23;;;;;;;;;;;18.70;80.20;;;;;;5092645;28;19973;-30
2023/08/27 09:05:50;;;;;;;;;;;18.70;80.30;;;;;;5092693;28;19916;-40
2023/08/27 09:08:16;;;;;;;;;;;18.70;80.40;;;;;;5092593;28;19955;-50
2023/08/27 09:10:42;;;;;;;;;;;18.80;80.40;;;;;;5092194;28;19916;-42
2023/08/27 09:13:08;;;;;;;;;;;18.80;80.20;;;;;;5092536;28;19908;-38
2023/08/27 09:15:33;;;;;;;;;;;18.90;79.90;;;;;;5092653;28;19915;-43
2023/08/27 09:17:59;;;;;;;;;;;19.10;79.50;;;;;;5092513;28;19970;-41
2023/08/27 09:20:25;;;;;;;;;;;19.10;79.30;;;;;;5091894;28;19931;-44
2023/08/27 09:22:50;;;;;;;;;;;19.10;79.00;;;;;;5092639;28;19916;-40
2023/08/27 09:25:16;;;;;;;;;;;19.10;78.90;;;;;;5092336;28;20015;-39
2023/08/27 09:27:41;;;;;;;;;;;19.10;78.40;;;;;;5092381;28;19962;-41
2023/08/27 09:30:07;;;;;;;;;;;19.20;77.80;;;;;;5091128;28;20013;-42
2023/08/27 09:32:33;;;;;;;;;;;19.20;77.20;;;;;;5091982;28;19912;-43
2023/08/27 09:34:59;;;;;;;;;;;19.20;75.70;;;;;;5092252;28;19999;-42
2023/08/27 09:37:28;;;;;;;;;;;19.20;75.60;;;;;;5092471;28;19999;-40
2023/08/27 09:39:54;;;;;;;;;;;19.20;75.60;;;;;;5092306;28;20002;-43
2023/08/27 09:42:20;;;;;;;;;;;19.20;75.90;;;;;;5092080;28;19908;-34
2023/08/27 09:44:50;;;;;;;;;;;19.10;75.80;;;;;;5092355;28;19908;-35
2023/08/27 09:47:15;;;;;;;;;;;19.10;76.20;;;;;;5092092;28;19915;-35
2023/08/27 09:49:42;;;;;;;;;;;19.10;76.10;;;;;;5091672;28;19909;-34
2023/08/27 09:52:07;;;;;;;;;;;19.10;76.10;;;;;;5091979;28;20085;-37
2023/08/27 09:54:33;;;;;;;;;;;19.00;75.80;;;;;;5092211;28;19995;-35
2023/08/27 09:57:01;;;;;;;;;;;19.00;76.40;;;;;;5092415;28;19908;-35
2023/08/27 09:59:27;;;;;;;;;;;19.00;76.60;;;;;;5095392;28;20284;-29
2023/08/27 10:01:53;;;;;;;;;;;19.00;76.60;;;;;;5096103;28;19914;-28
2023/08/27 10:04:19;;;;;;;;;;;19.00;75.90;;;;;;5095727;28;20429;-28
2023/08/27 10:06:44;;;;;;;;;;;19.00;76.10;;;;;;5095688;28;19916;-30
2023/08/27 10:09:10;;;;;;;;;;;19.00;75.60;;;;;;5095762;28;20427;-34
2023/08/27 10:11:36;;;;;;;;;;;19.20;75.20;;;;;;5095728;28;20342;-32
2023/08/27 10:14:03;;;;;;;;;;;19.30;74.80;;;;;;5095807;28;19908;-32
2023/08/27 10:16:29;;;;;;;;;;;19.50;75.00;;;;;;5094381;28;19915;-43
2023/08/27 10:18:55;;;;;;;;;;;19.70;74.60;;;;;;5095813;28;19908;-32
2023/08/27 10:21:21;;;;;;;;;;;19.80;74.10;;;;;;5095510;28;19912;-30
2023/08/27 10:23:47;;;;;;;;;;;19.90;73.70;;;;;;5095931;28;20367;-32
2023/08/27 10:26:13;;;;;;;;;;;19.80;73.70;;;;;;5095982;28;19908;-33
2023/08/27 10:28:39;;;;;;;;;;;19.80;73.10;;;;;;5095195;28;19909;-31
2023/08/27 10:31:05;;;;;;;;;;;19.60;72.50;;;;;;5095736;28;19965;-37
2023/08/27 10:33:31;;;;;;;;;;;19.50;71.80;;;;;;5095659;28;19912;-30
2023/08/27 10:35:59;;;;;;;;;;;19.30;71.50;;;;;;5095443;28;19914;-31
2023/08/27 10:38:25;;;;;;;;;;;19.00;70.50;;;;;;5095452;28;19908;-30
2023/08/27 10:40:51;;;;;;;;;;;18.80;70.90;;;;;;5095387;28;20007;-29
2023/08/27 10:43:17;;;;;;;;;;;18.60;72.00;;;;;;5094887;28;19946;-30
2023/08/27 10:45:43;;;;;;;;;;;18.40;72.00;;;;;;5094882;28;19908;-31
2023/08/27 10:48:22;;;;;;;;;;;18.40;72.10;;;;;;5095101;28;19908;-28
2023/08/27 10:50:47;;;;;;;;;;;18.40;71.80;;;;;;5095046;28;19923;-29
2023/08/27 10:53:14;;;;;;;;;;;18.30;71.30;;;;;;5094923;28;20028;-30
2023/08/27 10:55:43;;;;;;;;;;;18.30;71.40;;;;;;5095114;28;19956;-45
2023/08/27 10:58:13;;;;;;;;;;;18.20;70.80;;;;;;5095369;28;19973;-45
2023/08/27 11:00:56;;;;;;;;;;;18.20;69.30;;;;;;5094965;28;19991;-44
2023/08/27 11:03:21;;;;;;;;;;;18.20;70.70;;;;;;5095168;28;20436;-44
2023/08/27 11:06:07;;;;;;;;;;;18.10;70.70;;;;;;5094716;28;19920;-43
2023/08/27 11:08:34;;;;;;;;;;;18.10;71.20;;;;;;5093913;28;19908;-45
2023/08/27 11:11:09;;;;;;;;;;;18.20;71.20;;;;;;5094646;28;19959;-45
2023/08/27 11:13:36;;;;;;;;;;;18.30;71.20;;;;;;5094766;28;19908;-44
2023/08/27 11:16:08;;;;;;;;;;;18.50;71.10;;;;;;5094638;28;19924;-45
2023/08/27 11:18:50;;;;;;;;;;;18.70;70.50;;;;;;5094747;28;19909;-34
2023/08/27 11:21:24;;;;;;;;;;;18.80;70.80;;;;;;5094640;28;20327;-34
2023/08/27 11:24:08;;;;;;;;;;;18.90;69.90;;;;;;5094418;28;19908;-35
2023/08/27 11:26:34;;;;;;;;;;;18.80;69.80;;;;;;5094616;28;19909;-35
2023/08/27 11:29:00;;;;;;;;;;;18.70;70.40;;;;;;5094459;28;19908;-34
2023/08/27 11:31:26;;;;;;;;;;;18.50;70.70;;;;;;5094353;28;20394;-37
2023/08/27 11:33:52;;;;;;;;;;;18.20;70.90;;;;;;5094044;28;19915;-36
2023/08/27 11:36:18;;;;;;;;;;;18.00;71.50;;;;;;5094462;28;19908;-34
2023/08/27 11:38:43;;;;;;;;;;;17.80;71.20;;;;;;5092810;28;19955;-34
2023/08/27 11:41:09;;;;;;;;;;;17.50;73.40;;;;;;5094190;28;19908;-35
2023/08/27 11:43:34;;;;;;;;;;;17.00;75.10;;;;;;5092718;28;19912;-35
2023/08/27 11:46:00;;;;;;;;;;;16.50;76.10;;;;;;5092728;28;19919;-35
2023/08/27 11:48:25;;;;;;;;;;;16.20;77.00;;;;;;5093780;28;19951;-35
2023/08/27 11:50:51;;;;;;;;;;;15.90;77.80;;;;;;5093719;28;19920;-32
2023/08/27 11:53:16;;;;;;;;;;;15.80;78.40;;;;;;5094193;28;19915;-33
2023/08/27 11:55:43;;;;;;;;;;;15.70;78.80;;;;;;5093777;28;20275;-34
2023/08/27 11:58:09;;;;;;;;;;;15.60;79.20;;;;;;5093657;28;20004;-32
2023/08/27 12:00:35;;;;;;;;;;;15.60;79.60;;;;;;5093817;28;19915;-33
2023/08/27 12:03:01;;;;;;;;;;;15.50;79.80;;;;;;5093879;28;19918;-33
2023/08/27 12:05:27;;;;;;;;;;;15.50;79.90;;;;;;5093547;28;20359;-35
2023/08/27 12:07:52;;;;;;;;;;;15.60;80.00;;;;;;5093441;28;19908;-33
2023/08/27 12:10:18;;;;;;;;;;;15.70;80.20;;;;;;5093722;28;19908;-33
2023/08/27 12:12:46;;;;;;;;;;;15.90;80.30;;;;;;5093409;28;20351;-34
2023/08/27 12:15:12;;;;;;;;;;;16.00;80.30;;;;;;5093479;28;19950;-34
2023/08/27 12:17:38;;;;;;;;;;;16.20;80.30;;;;;;5093298;28;19908;-33
2023/08/27 12:20:05;;;;;;;;;;;16.30;80.50;;;;;;5092340;28;19915;-33
2023/08/27 12:22:41;;;;;;;;;;;16.40;80.10;;;;;;5093168;28;20002;-31
2023/08/27 12:25:07;;;;;;;;;;;16.50;80.40;;;;;;5093227;28;19914;-34
2023/08/27 12:27:32;;;;;;;;;;;16.70;80.10;;;;;;5093144;28;19943;-34
2023/08/27 12:29:58;;;;;;;;;;;16.80;80.20;;;;;;5093197;28;19908;-33
2023/08/27 12:32:29;;;;;;;;;;;16.90;80.40;;;;;;5092897;28;20260;-34
2023/08/27 12:34:54;;;;;;;;;;;17.00;80.20;;;;;;5093320;28;19908;-33
2023/08/27 12:37:21;;;;;;;;;;;17.10;80.20;;;;;;5093057;28;20320;-33
2023/08/27 12:39:47;;;;;;;;;;;17.10;80.40;;;;;;5092864;28;19908;-33
2023/08/27 12:42:14;;;;;;;;;;;17.20;80.30;;;;;;5093022;28;20003;-33
2023/08/27 12:44:39;;;;;;;;;;;17.30;80.50;;;;;;5093087;28;19957;-34
2023/08/27 12:47:06;;;;;;;;;;;17.30;80.40;;;;;;5092975;28;19908;-31
2023/08/27 12:49:31;;;;;;;;;;;17.30;80.20;;;;;;5092562;28;19912;-33
2023/08/27 12:51:57;;;;;;;;;;;17.30;80.10;;;;;;5092672;28;19912;-33
2023/08/27 12:54:22;;;;;;;;;;;17.40;80.10;;;;;;5092985;28;19983;-34
2023/08/27 12:56:48;;;;;;;;;;;17.40;80.10;;;;;;5092764;28;19908;-33
2023/08/27 12:59:14;;;;;;;;;;;17.50;80.20;;;;;;5092952;28;20252;-33
2023/08/27 13:01:40;;;;;;;;;;;17.50;79.90;;;;;;5092779;28;19998;-34
2023/08/27 13:04:06;;;;;;;;;;;17.50;79.60;;;;;;5093060;28;19916;-32
2023/08/27 13:06:31;;;;;;;;;;;17.50;79.70;;;;;;5091183;28;19920;-36
2023/08/27 13:08:57;;;;;;;;;;;17.60;79.80;;;;;;5092501;28;20325;-36
2023/08/27 13:11:22;;;;;;;;;;;17.60;79.70;;;;;;5092791;28;19958;-35
2023/08/27 13:13:48;;;;;;;;;;;17.70;79.80;;;;;;5092613;28;19959;-32
2023/08/27 13:16:13;;;;;;;;;;;17.70;79.40;;;;;;5092506;28;19961;-34
2023/08/27 13:18:39;;;;;;;;;;;17.70;79.10;;;;;;5092222;28;20322;-33
2023/08/27 13:21:04;;;;;;;;;;;17.80;79.40;;;;;;5092387;28;19915;-33
2023/08/27 13:23:30;;;;;;;;;;;17.80;79.30;;;;;;5092331;28;19908;-33
2023/08/27 13:25:55;;;;;;;;;;;18.00;78.90;;;;;;5092357;28;20414;-34
2023/08/27 13:28:21;;;;;;;;;;;18.10;78.30;;;;;;5092317;28;19912;-33
2023/08/27 13:30:46;;;;;;;;;;;18.20;78.50;;;;;;5092101;28;20356;-32
2023/08/27 13:33:15;;;;;;;;;;;18.40;78.30;;;;;;5092244;28;19966;-33
2023/08/27 13:35:40;;;;;;;;;;;18.60;77.90;;;;;;5092292;28;19912;-33
2023/08/27 13:38:06;;;;;;;;;;;18.80;77.40;;;;;;5092165;28;20285;-34
2023/08/27 13:40:31;;;;;;;;;;;18.90;77.00;;;;;;5092314;28;19908;-33
2023/08/27 13:42:57;;;;;;;;;;;19.00;76.90;;;;;;5092127;28;19908;-33
2023/08/27 13:45:22;;;;;;;;;;;19.10;76.30;;;;;;5091994;28;20640;-36
2023/08/27 13:47:51;;;;;;;;;;;19.20;76.20;;;;;;5092477;28;19957;-33
2023/08/27 13:50:17;;;;;;;;;;;19.30;75.90;;;;;;5091708;28;19923;-31
2023/08/27 13:52:43;;;;;;;;;;;19.40;73.90;;;;;;5092361;28;19919;-34
2023/08/27 13:55:08;;;;;;;;;;;19.40;74.20;;;;;;5092177;28;19908;-33
2023/08/27 13:57:34;;;;;;;;;;;19.40;71.80;;;;;;5092026;28;19908;-26
2023/08/27 13:59:59;;;;;;;;;;;19.40;70.40;;;;;;5091857;28;19908;-26
2023/08/27 14:02:25;;;;;;;;;;;19.40;71.20;;;;;;5091960;28;19908;-26
2023/08/27 14:04:50;;;;;;;;;;;19.40;71.60;;;;;;5092163;28;19973;-26
2023/08/27 14:07:16;;;;;;;;;;;19.50;69.70;;;;;;5091746;28;19916;-28
2023/08/27 14:09:42;;;;;;;;;;;19.60;70.50;;;;;;5091617;28;19908;-26